Time;durP1;ratioP1;P1;durP2;ratioP2;P2;SDS_P1;SDS_P2;PMS_P1;PMS_P2;Temp;Humidity;BMP_temperature;BMP_pressure;BME280_temperature;BME280_humidity;BME280_pressure;Samples;Min_cycle;Max_cycle;Signal;HPM_P1;HPM_P2
2023/09/10 00:01:17;;;;;;;4.05;2.92;;;20.20;90.00;;;;;;6230537;22;20020;-88
2023/09/10 00:03:44;;;;;;;4.13;3.28;;;20.10;90.00;;;;;;6230145;22;20015;-88
2023/09/10 00:06:11;;;;;;;5.18;3.42;;;20.10;90.00;;;;;;6232102;22;20019;-87
2023/09/10 00:08:38;;;;;;;5.85;2.95;;;20.10;90.00;;;;;;6232476;22;20019;-87
2023/09/10 00:11:06;;;;;;;5.13;3.05;;;20.10;90.10;;;;;;6257763;22;20041;-87
2023/09/10 00:13:33;;;;;;;4.25;3.35;;;20.10;90.10;;;;;;6233059;22;20023;-87
2023/09/10 00:16:01;;;;;;;3.83;3.10;;;20.00;90.40;;;;;;6232551;22;20015;-88
2023/09/10 00:18:28;;;;;;;3.47;2.85;;;20.00;90.20;;;;;;6283179;22;20434;-87
2023/09/10 00:20:55;;;;;;;4.50;3.33;;;20.00;90.20;;;;;;6257990;22;20050;-87
2023/09/10 00:23:22;;;;;;;4.72;3.22;;;20.00;90.20;;;;;;6232819;22;20011;-87
2023/09/10 00:25:49;;;;;;;4.95;3.47;;;20.00;90.20;;;;;;6232112;22;20022;-87
2023/09/10 00:28:16;;;;;;;3.83;3.13;;;20.00;90.30;;;;;;6282991;22;20015;-87
2023/09/10 00:30:43;;;;;;;4.55;3.50;;;20.00;90.30;;;;;;6232165;22;20030;-87
2023/09/10 00:33:10;;;;;;;4.57;3.72;;;20.00;90.30;;;;;;6232087;22;20019;-87
2023/09/10 00:35:37;;;;;;;4.15;3.70;;;20.10;90.30;;;;;;6282497;22;20043;-87
2023/09/10 00:38:05;;;;;;;4.40;3.67;;;20.10;90.30;;;;;;6232073;22;20023;-87
2023/09/10 00:40:32;;;;;;;4.68;3.72;;;20.00;90.20;;;;;;6257259;22;20019;-87
2023/09/10 00:42:59;;;;;;;4.40;3.30;;;20.10;90.30;;;;;;6257340;22;20409;-87
2023/09/10 00:45:27;;;;;;;4.63;3.75;;;20.10;90.30;;;;;;6231725;22;20098;-88
2023/09/10 00:47:54;;;;;;;7.15;3.95;;;20.10;90.30;;;;;;6282156;22;20015;-87
2023/09/10 00:50:22;;;;;;;5.30;4.07;;;20.10;90.20;;;;;;6232167;22;20445;-87
2023/09/10 00:52:54;;;;;;;4.95;3.45;;;20.10;90.20;;;;;;6256761;22;20045;-87
2023/09/10 00:55:26;;;;;;;4.35;3.28;;;20.20;90.50;;;;;;6281954;22;20019;-87
2023/09/10 00:57:54;;;;;;;4.45;3.53;;;20.20;90.30;;;;;;6232686;22;20055;-87
2023/09/10 01:00:22;;;;;;;4.45;3.47;;;20.20;90.30;;;;;;6231898;22;20015;-87
2023/09/10 01:02:49;;;;;;;4.88;3.45;;;20.20;90.30;;;;;;6282728;22;20023;-87
2023/09/10 01:05:17;;;;;;;5.28;3.72;;;20.20;90.30;;;;;;6231971;22;20011;-87
2023/09/10 01:07:45;;;;;;;4.45;3.28;;;20.10;90.30;;;;;;6281893;22;20047;-87
2023/09/10 01:10:13;;;;;;;4.43;3.42;;;20.20;90.40;;;;;;6257091;22;20464;-87
2023/09/10 01:12:54;;;;;;;4.30;3.38;;;20.10;90.30;;;;;;6256784;22;20015;-87
2023/09/10 01:15:34;;;;;;;4.38;3.20;;;20.10;90.40;;;;;;6282083;22;20110;-87
2023/09/10 01:18:30;;;;;;;4.73;3.40;;;20.10;90.40;;;;;;6281783;22;20023;-87
2023/09/10 01:21:38;;;;;;;5.45;3.90;;;20.10;90.40;;;;;;6281854;22;20015;-87
2023/09/10 01:24:19;;;;;;;4.82;3.92;;;20.10;90.40;;;;;;6252440;22;20042;-87
2023/09/10 01:26:59;;;;;;;5.03;3.90;;;20.10;90.40;;;;;;6281885;22;20463;-87
2023/09/10 01:29:26;;;;;;;4.25;3.30;;;20.10;90.40;;;;;;6256555;22;20261;-87
2023/09/10 01:31:59;;;;;;;4.72;3.80;;;20.00;90.40;;;;;;6282053;22;20020;-87
2023/09/10 01:34:32;;;;;;;4.43;3.35;;;20.10;90.50;;;;;;6256179;22;20372;-87
2023/09/10 01:37:13;;;;;;;5.25;3.65;;;20.00;90.50;;;;;;6256641;22;20051;-87
2023/09/10 01:39:43;;;;;;;4.85;3.78;;;20.00;90.50;;;;;;6256392;22;20019;-87
2023/09/10 01:42:11;;;;;;;4.47;3.55;;;20.00;90.60;;;;;;6281546;22;20025;-87
2023/09/10 01:44:41;;;;;;;5.05;4.10;;;20.00;90.60;;;;;;6256188;22;20043;-87
2023/09/10 01:47:08;;;;;;;4.57;3.58;;;19.90;90.60;;;;;;6256580;22;20020;-87
2023/09/10 01:49:36;;;;;;;5.07;4.00;;;20.00;90.60;;;;;;6281906;22;20468;-87
2023/09/10 01:52:04;;;;;;;4.93;3.33;;;20.00;90.70;;;;;;6231793;22;20349;-87
2023/09/10 01:54:31;;;;;;;4.80;3.33;;;20.00;90.70;;;;;;6231117;22;20063;-87
2023/09/10 01:56:58;;;;;;;5.38;3.83;;;20.00;90.70;;;;;;6231372;22;20068;-87
2023/09/10 01:59:25;;;;;;;5.07;3.58;;;20.00;90.70;;;;;;6256063;22;20726;-87
2023/09/10 02:01:52;;;;;;;5.55;4.10;;;20.00;90.70;;;;;;6231107;22;20019;-86
2023/09/10 02:04:19;;;;;;;5.78;4.65;;;20.00;90.70;;;;;;6256705;22;20023;-87
2023/09/10 02:06:47;;;;;;;5.93;4.05;;;19.90;90.70;;;;;;6255814;22;20022;-87
2023/09/10 02:09:15;;;;;;;4.97;4.22;;;20.00;90.70;;;;;;6256252;22;20102;-87
2023/09/10 02:11:42;;;;;;;5.07;3.83;;;19.90;90.70;;;;;;6230897;22;20098;-87
2023/09/10 02:14:09;;;;;;;6.03;3.63;;;20.00;90.70;;;;;;6230911;22;20053;-87
2023/09/10 02:16:36;;;;;;;5.50;3.92;;;20.00;90.70;;;;;;6231153;22;20049;-87
2023/09/10 02:19:04;;;;;;;4.90;3.95;;;19.90;90.70;;;;;;6231120;22;20015;-87
2023/09/10 02:21:31;;;;;;;6.18;3.80;;;19.90;90.70;;;;;;6205643;22;20090;-88
2023/09/10 02:23:58;;;;;;;5.28;4.00;;;20.00;90.80;;;;;;6205936;22;20090;-87
2023/09/10 02:26:25;;;;;;;6.78;4.38;;;20.00;90.80;;;;;;6230860;22;20050;-87
2023/09/10 02:28:52;;;;;;;5.28;4.22;;;20.00;90.80;;;;;;6281282;22;20039;-87
2023/09/10 02:31:21;;;;;;;5.50;4.07;;;20.00;90.70;;;;;;6230520;22;20023;-87
2023/09/10 02:33:48;;;;;;;5.47;3.97;;;20.00;90.70;;;;;;6255866;22;20023;-87
2023/09/10 02:36:15;;;;;;;5.35;3.92;;;20.00;90.70;;;;;;6280684;22;20023;-87
2023/09/10 02:38:42;;;;;;;5.55;4.10;;;20.00;90.70;;;;;;6230413;22;20023;-87
2023/09/10 02:41:10;;;;;;;5.00;3.95;;;20.00;90.70;;;;;;6205594;22;20129;-87
2023/09/10 02:43:38;;;;;;;4.72;3.83;;;20.00;90.70;;;;;;6230747;22;20041;-87
2023/09/10 02:46:05;;;;;;;5.63;4.03;;;20.00;90.70;;;;;;6231015;22;20019;-87
2023/09/10 02:48:33;;;;;;;5.45;3.67;;;20.00;90.70;;;;;;6231199;22;20025;-87
2023/09/10 02:51:00;;;;;;;5.03;3.88;;;20.00;90.80;;;;;;6231037;22;20098;-87
2023/09/10 02:53:27;;;;;;;5.63;4.32;;;20.00;90.80;;;;;;6230831;22;20023;-87
2023/09/10 02:56:01;;;;;;;5.50;3.78;;;19.90;90.80;;;;;;6231061;22;20049;-87
2023/09/10 02:58:29;;;;;;;5.15;4.20;;;19.90;90.90;;;;;;6231767;22;20023;-87
2023/09/10 03:01:03;;;;;;;6.00;4.40;;;19.90;91.00;;;;;;6277366;22;20015;-86
2023/09/10 03:03:32;;;;;;;5.93;4.05;;;19.80;91.00;;;;;;6251758;22;20015;-86
2023/09/10 03:06:00;;;;;;;4.88;3.65;;;19.80;91.00;;;;;;6240147;22;20390;-85
2023/09/10 03:08:32;;;;;;;5.90;4.22;;;19.80;91.10;;;;;;6231862;22;20019;-85
2023/09/10 03:11:03;;;;;;;6.25;4.70;;;19.80;91.10;;;;;;6255837;22;20019;-85
2023/09/10 03:13:31;;;;;;;5.75;4.72;;;19.70;91.10;;;;;;6231032;22;20467;-85
2023/09/10 03:15:58;;;;;;;5.32;4.07;;;19.70;91.10;;;;;;6255405;22;20023;-85
2023/09/10 03:18:25;;;;;;;6.47;4.55;;;19.70;91.20;;;;;;6254985;22;20030;-85
2023/09/10 03:20:54;;;;;;;5.50;4.57;;;19.70;91.20;;;;;;6229392;22;20026;-86
2023/09/10 03:23:22;;;;;;;6.55;4.45;;;19.60;91.30;;;;;;6255289;22;20360;-85
2023/09/10 03:25:49;;;;;;;5.43;4.38;;;19.60;91.30;;;;;;6254959;22;20015;-85
2023/09/10 03:28:16;;;;;;;6.60;5.00;;;19.60;91.30;;;;;;6306550;22;20026;-86
2023/09/10 03:30:44;;;;;;;5.57;4.38;;;19.60;91.30;;;;;;6230558;22;20023;-86
2023/09/10 03:33:11;;;;;;;6.18;4.93;;;19.60;91.30;;;;;;6230080;22;20027;-85
2023/09/10 03:35:38;;;;;;;6.97;5.25;;;19.60;91.30;;;;;;6229958;22;20271;-85
2023/09/10 03:38:05;;;;;;;6.60;4.10;;;19.60;91.30;;;;;;6229713;22;20023;-86
2023/09/10 03:40:32;;;;;;;4.38;3.97;;;19.60;91.30;;;;;;6254573;22;20031;-85
2023/09/10 03:43:00;;;;;;;5.20;4.10;;;19.70;91.30;;;;;;6280793;22;20341;-86
2023/09/10 03:45:27;;;;;;;5.30;4.80;;;19.70;91.30;;;;;;6229792;22;20023;-86
2023/09/10 03:47:54;;;;;;;4.68;3.78;;;19.70;91.20;;;;;;6230202;22;20015;-85
2023/09/10 03:50:22;;;;;;;5.43;4.03;;;19.70;91.20;;;;;;6229793;22;20386;-85
2023/09/10 03:52:49;;;;;;;5.30;4.30;;;19.70;91.30;;;;;;6280285;22;20030;-85
2023/09/10 03:55:16;;;;;;;5.55;4.43;;;19.70;91.30;;;;;;6229641;22;20023;-85
2023/09/10 03:57:43;;;;;;;6.72;5.25;;;19.70;91.30;;;;;;6229581;22;20027;-85
2023/09/10 04:00:11;;;;;;;6.38;5.07;;;19.70;91.30;;;;;;6254611;22;20026;-85
2023/09/10 04:02:39;;;;;;;6.53;4.78;;;19.70;91.30;;;;;;6230051;22;20069;-86
2023/09/10 04:05:09;;;;;;;6.93;4.35;;;19.70;91.30;;;;;;6205475;22;20015;-85
2023/09/10 04:07:36;;;;;;;6.50;5.63;;;19.70;91.30;;;;;;6254871;22;20012;-85
2023/09/10 04:10:03;;;;;;;6.55;5.00;;;19.70;91.30;;;;;;6254982;22;20118;-85
2023/09/10 04:12:30;;;;;;;5.72;4.47;;;19.70;91.40;;;;;;6254891;22;20015;-85
2023/09/10 04:14:57;;;;;;;5.22;4.45;;;19.70;91.40;;;;;;6254674;22;20019;-85
2023/09/10 04:17:28;;;;;;;8.88;6.22;;;19.70;91.40;;;;;;6280615;22;20026;-85
2023/09/10 04:19:57;;;;;;;6.47;5.03;;;19.70;91.40;;;;;;6230335;22;20072;-85
2023/09/10 04:22:24;;;;;;;6.88;5.53;;;19.60;91.30;;;;;;6229861;22;20019;-86
2023/09/10 04:24:52;;;;;;;5.95;4.88;;;19.60;91.40;;;;;;6279689;22;20344;-85
2023/09/10 04:27:19;;;;;;;6.18;5.22;;;19.60;91.40;;;;;;6280227;22;20016;-85
2023/09/10 04:29:46;;;;;;;6.05;4.63;;;19.60;91.40;;;;;;6229649;22;20049;-86
2023/09/10 04:32:13;;;;;;;6.10;4.80;;;19.60;91.40;;;;;;6254971;22;20072;-86
2023/09/10 04:34:40;;;;;;;6.57;5.53;;;19.60;91.40;;;;;;6232094;22;20026;-85
2023/09/10 04:37:07;;;;;;;6.10;5.13;;;19.60;91.40;;;;;;6231259;22;20499;-86
2023/09/10 04:39:34;;;;;;;6.28;5.03;;;19.60;91.40;;;;;;6231273;22;20031;-86
2023/09/10 04:42:02;;;;;;;7.47;5.40;;;19.60;91.50;;;;;;6214749;22;20026;-86
2023/09/10 04:44:30;;;;;;;7.10;5.45;;;19.60;91.50;;;;;;6287229;22;20019;-86
2023/09/10 04:46:57;;;;;;;6.00;4.65;;;19.60;91.50;;;;;;6281282;22;20066;-86
2023/09/10 04:49:24;;;;;;;9.77;5.43;;;19.60;91.50;;;;;;6282005;22;20069;-86
2023/09/10 04:51:51;;;;;;;7.53;5.45;;;19.60;91.50;;;;;;6232487;22;20464;-85
2023/09/10 04:54:18;;;;;;;5.68;4.65;;;19.60;91.50;;;;;;6232713;22;20052;-85
2023/09/10 04:56:50;;;;;;;8.60;6.03;;;19.60;91.50;;;;;;6233032;22;20353;-85
2023/09/10 04:59:19;;;;;;;7.38;5.60;;;19.60;91.50;;;;;;6258020;22;20036;-86
2023/09/10 05:01:49;;;;;;;7.57;5.25;;;19.50;91.50;;;;;;6257553;22;20019;-86
2023/09/10 05:04:16;;;;;;;6.43;5.45;;;19.50;91.50;;;;;;6256617;22;20011;-86
2023/09/10 05:06:44;;;;;;;6.65;5.20;;;19.50;91.50;;;;;;6281990;22;20022;-86
2023/09/10 05:09:11;;;;;;;6.53;4.32;;;19.50;91.50;;;;;;6231993;22;20011;-86
2023/09/10 05:11:38;;;;;;;7.70;5.70;;;19.50;91.50;;;;;;6231200;22;20027;-86
2023/09/10 05:14:05;;;;;;;8.07;6.18;;;19.50;91.60;;;;;;6231583;22;20042;-86
2023/09/10 05:16:32;;;;;;;6.85;5.78;;;19.50;91.60;;;;;;6282063;22;20019;-86
2023/09/10 05:18:59;;;;;;;6.00;4.78;;;19.50;91.60;;;;;;6231210;22;20072;-85
2023/09/10 05:21:26;;;;;;;6.88;4.60;;;19.50;91.60;;;;;;6206797;22;20019;-86
2023/09/10 05:23:54;;;;;;;6.43;5.38;;;19.50;91.60;;;;;;6256392;22;20015;-86
2023/09/10 05:26:22;;;;;;;7.30;5.95;;;19.50;91.60;;;;;;6231126;22;20015;-85
2023/09/10 05:28:49;;;;;;;6.35;5.05;;;19.50;91.60;;;;;;6231480;22;20026;-85
2023/09/10 05:31:17;;;;;;;8.15;6.07;;;19.50;91.60;;;;;;6256489;22;20073;-86
2023/09/10 05:33:44;;;;;;;7.32;4.82;;;19.50;91.60;;;;;;6205849;22;20050;-86
2023/09/10 05:36:11;;;;;;;6.75;4.55;;;19.50;91.60;;;;;;6256035;22;20030;-86
2023/09/10 05:38:38;;;;;;;7.10;5.03;;;19.60;91.60;;;;;;6281511;22;20015;-86
2023/09/10 05:41:07;;;;;;;6.47;5.53;;;19.60;91.60;;;;;;6231064;22;20016;-86
2023/09/10 05:43:34;;;;;;;6.82;5.28;;;19.60;91.60;;;;;;6256622;22;20094;-86
2023/09/10 05:46:01;;;;;;;6.18;4.65;;;19.70;91.60;;;;;;6206092;22;20061;-86
2023/09/10 05:48:33;;;;;;;7.50;5.28;;;19.60;91.50;;;;;;6232949;22;20042;-86
2023/09/10 05:51:00;;;;;;;8.38;6.07;;;19.70;91.50;;;;;;6231162;22;20019;-86
2023/09/10 05:53:29;;;;;;;7.05;5.38;;;19.70;91.50;;;;;;6231776;22;20077;-86
2023/09/10 05:55:56;;;;;;;7.38;5.53;;;19.80;91.50;;;;;;6280799;22;20031;-86
2023/09/10 05:58:24;;;;;;;6.65;5.70;;;19.80;91.40;;;;;;6230904;22;20027;-87
2023/09/10 06:00:54;;;;;;;6.93;5.85;;;19.80;91.40;;;;;;6281877;22;20019;-86
2023/09/10 06:03:21;;;;;;;7.93;5.80;;;19.90;91.30;;;;;;6231137;22;20483;-86
2023/09/10 06:05:49;;;;;;;6.63;4.90;;;19.90;91.30;;;;;;6255802;22;20024;-86
2023/09/10 06:08:16;;;;;;;7.82;5.70;;;20.00;91.30;;;;;;6255733;22;20409;-86
2023/09/10 06:10:44;;;;;;;6.70;5.40;;;20.00;91.20;;;;;;6280796;22;20027;-86
2023/09/10 06:13:11;;;;;;;7.70;5.60;;;20.10;91.20;;;;;;6230732;22;20023;-86
2023/09/10 06:15:39;;;;;;;7.90;6.55;;;20.10;91.10;;;;;;6255341;22;20026;-86
2023/09/10 06:18:06;;;;;;;9.02;6.18;;;20.20;91.10;;;;;;6280931;22;20464;-86
2023/09/10 06:20:34;;;;;;;7.60;6.05;;;20.30;91.00;;;;;;6255593;22;20031;-86
2023/09/10 06:23:02;;;;;;;9.10;6.60;;;20.30;90.90;;;;;;6231208;22;20077;-86
2023/09/10 06:25:30;;;;;;;7.43;6.13;;;20.40;90.90;;;;;;6231067;22;20412;-86
2023/09/10 06:27:57;;;;;;;8.10;6.10;;;20.50;90.80;;;;;;6255527;22;20023;-86
2023/09/10 06:30:24;;;;;;;7.63;6.00;;;20.60;90.80;;;;;;6205781;22;20015;-86
2023/09/10 06:32:52;;;;;;;6.82;5.30;;;20.60;90.70;;;;;;6230672;22;20026;-86
2023/09/10 06:35:19;;;;;;;7.60;5.97;;;20.70;90.60;;;;;;6230488;22;20028;-86
2023/09/10 06:37:48;;;;;;;6.60;5.47;;;20.80;90.60;;;;;;6255488;22;20019;-86
2023/09/10 06:40:15;;;;;;;9.38;7.05;;;20.90;90.50;;;;;;6230936;22;20098;-86
2023/09/10 06:42:44;;;;;;;9.30;7.40;;;20.90;90.40;;;;;;6230963;22;20026;-86
2023/09/10 06:45:19;;;;;;;6.75;5.57;;;21.00;90.40;;;;;;6257030;22;20030;-86
2023/09/10 06:47:46;;;;;;;6.95;5.68;;;21.10;90.40;;;;;;6256072;22;20022;-86
2023/09/10 06:50:13;;;;;;;7.30;6.20;;;21.20;90.30;;;;;;6230160;22;20011;-86
2023/09/10 06:52:40;;;;;;;6.88;5.18;;;21.20;90.30;;;;;;6230907;22;20023;-86
2023/09/10 06:55:08;;;;;;;6.93;5.72;;;21.30;90.20;;;;;;6229998;22;20349;-86
2023/09/10 06:57:35;;;;;;;8.60;6.35;;;21.30;90.20;;;;;;6280143;22;20396;-86
2023/09/10 07:00:02;;;;;;;6.65;4.85;;;21.40;90.10;;;;;;6280310;22;20030;-86
2023/09/10 07:02:29;;;;;;;6.35;4.65;;;21.50;90.10;;;;;;6255183;22;20019;-86
2023/09/10 07:04:57;;;;;;;7.00;5.65;;;21.60;90.00;;;;;;6280670;22;20015;-86
2023/09/10 07:07:24;;;;;;;6.90;5.57;;;21.60;90.00;;;;;;6229913;22;20019;-87
2023/09/10 07:09:51;;;;;;;7.35;5.28;;;21.70;89.80;;;;;;6230430;22;20027;-88
2023/09/10 07:12:19;;;;;;;6.78;5.70;;;21.80;89.70;;;;;;6279926;22;20453;-85
2023/09/10 07:14:49;;;;;;;11.88;7.70;;;21.90;89.50;;;;;;6230391;22;20068;-85
2023/09/10 07:17:16;;;;;;;7.80;5.40;;;22.00;89.40;;;;;;6230012;22;20019;-85
2023/09/10 07:19:43;;;;;;;7.15;5.85;;;22.10;89.40;;;;;;6229588;22;20047;-84
2023/09/10 07:22:10;;;;;;;7.07;5.70;;;22.20;89.20;;;;;;6254642;22;20076;-85
2023/09/10 07:24:37;;;;;;;7.05;5.60;;;22.20;89.10;;;;;;6254461;22;20019;-84
2023/09/10 07:27:04;;;;;;;6.93;6.22;;;22.30;88.90;;;;;;6229596;22;20016;-87
2023/09/10 07:29:31;;;;;;;8.27;6.50;;;22.40;88.80;;;;;;6255451;22;20021;-86
2023/09/10 07:31:58;;;;;;;7.82;6.07;;;22.50;88.70;;;;;;6230129;22;20020;-86
2023/09/10 07:34:26;;;;;;;8.52;6.82;;;22.60;88.60;;;;;;6230107;22;20050;-87
2023/09/10 07:36:53;;;;;;;7.85;6.70;;;22.60;88.50;;;;;;6306363;22;20054;-86
2023/09/10 07:39:22;;;;;;;9.32;6.82;;;22.70;88.50;;;;;;6205185;22;20046;-88
2023/09/10 07:41:51;;;;;;;8.00;6.65;;;22.80;88.40;;;;;;6231398;22;20022;-87
2023/09/10 07:44:18;;;;;;;9.75;7.05;;;22.80;88.30;;;;;;6255087;22;20033;-87
2023/09/10 07:46:49;;;;;;;6.68;5.72;;;22.90;88.20;;;;;;6208158;22;20016;-87
2023/09/10 07:49:16;;;;;;;8.07;6.70;;;23.00;88.10;;;;;;6230320;22;20101;-88
2023/09/10 07:51:43;;;;;;;9.88;8.48;;;23.10;87.90;;;;;;6255420;22;20034;-87
2023/09/10 07:54:10;;;;;;;9.48;7.28;;;23.20;87.80;;;;;;6280817;22;20034;-87
2023/09/10 07:56:37;;;;;;;8.27;6.90;;;23.20;87.70;;;;;;6230527;22;20047;-87
2023/09/10 07:59:05;;;;;;;9.05;7.25;;;23.30;87.70;;;;;;6280580;22;20027;-87
2023/09/10 08:01:32;;;;;;;8.77;7.53;;;23.40;87.60;;;;;;6230618;22;20012;-88
2023/09/10 08:03:59;;;;;;;9.23;8.10;;;23.40;87.50;;;;;;6254993;22;20019;-87
2023/09/10 08:06:26;;;;;;;8.93;7.20;;;23.50;87.50;;;;;;6280555;22;20020;-87
2023/09/10 08:08:53;;;;;;;8.65;7.15;;;23.50;87.40;;;;;;6229962;22;20019;-88
2023/09/10 08:11:20;;;;;;;9.07;7.65;;;23.60;87.30;;;;;;6280669;22;20023;-88
2023/09/10 08:13:48;;;;;;;10.00;8.10;;;23.60;87.10;;;;;;6280618;22;20106;-87
2023/09/10 08:16:15;;;;;;;9.30;7.72;;;23.70;87.10;;;;;;6229972;22;20047;-87
2023/09/10 08:18:42;;;;;;;10.23;8.02;;;23.70;87.00;;;;;;6255026;22;20384;-87
2023/09/10 08:21:10;;;;;;;10.20;8.27;;;23.80;87.00;;;;;;6254770;22;20067;-88
2023/09/10 08:23:37;;;;;;;8.93;7.47;;;23.90;86.90;;;;;;6280113;22;20026;-87
2023/09/10 08:26:04;;;;;;;9.00;7.65;;;23.90;86.80;;;;;;6281008;22;20015;-84
2023/09/10 08:28:31;;;;;;;10.77;8.80;;;24.00;86.70;;;;;;6281237;22;20018;-84
2023/09/10 08:30:58;;;;;;;10.75;9.00;;;24.00;86.60;;;;;;6230545;22;20384;-85
2023/09/10 08:33:33;;;;;;;10.07;7.88;;;24.10;86.60;;;;;;6231328;22;20019;-87
2023/09/10 08:36:03;;;;;;;9.63;7.97;;;24.20;86.50;;;;;;6281984;22;20472;-86
2023/09/10 08:38:30;;;;;;;10.10;8.82;;;24.20;86.50;;;;;;6257139;22;20342;-86
2023/09/10 08:41:18;;;;;;;9.85;8.10;;;24.30;86.40;;;;;;6232339;22;20260;-86
2023/09/10 08:43:56;;;;;;;10.50;7.95;;;24.30;86.20;;;;;;6282313;22;20076;-87
2023/09/10 08:46:30;;;;;;;9.88;7.72;;;24.40;86.20;;;;;;6256813;22;20019;-87
2023/09/10 08:48:59;;;;;;;8.57;7.38;;;24.40;86.20;;;;;;6282680;22;20346;-86
2023/09/10 08:51:27;;;;;;;10.75;9.00;;;24.50;86.10;;;;;;6282115;22;20129;-86
2023/09/10 08:53:56;;;;;;;10.75;9.40;;;24.60;86.10;;;;;;6231242;22;20027;-88
2023/09/10 08:56:25;;;;;;;11.20;9.45;;;24.60;85.90;;;;;;6256757;22;20069;-87
2023/09/10 08:58:53;;;;;;;10.10;8.32;;;24.70;85.90;;;;;;6308753;22;20023;-86
2023/09/10 09:01:25;;;;;;;8.90;7.95;;;24.80;85.90;;;;;;6281751;22;20026;-88
2023/09/10 09:03:53;;;;;;;9.60;8.43;;;24.90;85.80;;;;;;6282109;22;20069;-86
2023/09/10 09:06:21;;;;;;;12.13;8.45;;;24.90;85.60;;;;;;6232015;22;20098;-87
2023/09/10 09:08:51;;;;;;;10.52;9.02;;;25.00;85.50;;;;;;6281969;22;20016;-87
2023/09/10 09:11:25;;;;;;;12.38;9.00;;;25.10;85.40;;;;;;6281600;22;20027;-86
2023/09/10 09:13:54;;;;;;;9.10;7.72;;;25.10;85.30;;;;;;6281821;22;20019;-87
2023/09/10 09:16:22;;;;;;;14.00;11.73;;;25.20;85.10;;;;;;6281613;22;20406;-84
2023/09/10 09:18:51;;;;;;;13.35;9.65;;;25.30;85.10;;;;;;6255744;22;20081;-83
2023/09/10 09:21:20;;;;;;;10.30;8.63;;;25.30;84.90;;;;;;6281402;22;20019;-84
2023/09/10 09:24:00;;;;;;;11.35;9.43;;;25.40;84.90;;;;;;6255362;22;20094;-83
2023/09/10 09:26:28;;;;;;;9.85;8.68;;;25.40;84.70;;;;;;6281403;22;20030;-84
2023/09/10 09:28:56;;;;;;;11.10;8.57;;;25.50;84.70;;;;;;6255454;22;20030;-84
2023/09/10 09:31:24;;;;;;;10.65;8.88;;;25.50;84.50;;;;;;6281163;22;20404;-83
2023/09/10 09:33:52;;;;;;;12.27;8.30;;;25.60;84.40;;;;;;6280698;22;20050;-84
2023/09/10 09:36:26;;;;;;;9.70;7.85;;;25.70;84.30;;;;;;6230631;22;20102;-84
2023/09/10 09:38:54;;;;;;;9.38;8.35;;;25.80;84.20;;;;;;6255361;22;20341;-83
2023/09/10 09:41:21;;;;;;;9.05;7.43;;;25.90;84.10;;;;;;6280689;22;20084;-83
2023/09/10 09:43:48;;;;;;;9.70;7.20;;;25.90;83.80;;;;;;6255214;22;20015;-84
2023/09/10 09:46:16;;;;;;;9.75;8.40;;;26.00;83.70;;;;;;6205328;22;20016;-83
2023/09/10 09:48:47;;;;;;;10.55;8.07;;;26.10;83.60;;;;;;6280522;22;20011;-84
2023/09/10 09:51:15;;;;;;;8.52;7.18;;;26.20;83.50;;;;;;6230593;22;20357;-83
2023/09/10 09:53:44;;;;;;;8.40;7.32;;;26.20;83.30;;;;;;6255366;22;20019;-84
2023/09/10 09:56:11;;;;;;;10.57;8.95;;;26.30;83.30;;;;;;6305913;22;20019;-85
2023/09/10 09:58:38;;;;;;;9.23;7.38;;;26.30;83.00;;;;;;6254819;22;20098;-83
2023/09/10 10:01:06;;;;;;;7.88;7.05;;;26.40;82.90;;;;;;6230150;22;20019;-83
2023/09/10 10:03:34;;;;;;;8.77;6.95;;;26.50;82.80;;;;;;6280820;22;20019;-84
2023/09/10 10:06:02;;;;;;;7.93;7.07;;;26.60;82.60;;;;;;6230737;22;20015;-83
2023/09/10 10:08:31;;;;;;;11.55;9.07;;;26.70;82.50;;;;;;6255075;22;20026;-83
2023/09/10 10:10:58;;;;;;;8.05;6.70;;;26.80;82.00;;;;;;6230467;22;20065;-83
2023/09/10 10:13:29;;;;;;;8.73;6.55;;;27.10;81.50;;;;;;6255144;22;20027;-85
2023/09/10 10:16:05;;;;;;;7.28;5.82;;;27.40;80.70;;;;;;6282380;22;20385;-83
2023/09/10 10:18:33;;;;;;;6.45;5.20;;;27.70;79.80;;;;;;6230561;22;20025;-84
2023/09/10 10:21:03;;;;;;;6.40;5.18;;;28.10;79.10;;;;;;6280711;22;20071;-84
2023/09/10 10:23:30;;;;;;;5.68;4.95;;;28.30;78.20;;;;;;6280876;22;20034;-84
2023/09/10 10:26:04;;;;;;;7.55;4.60;;;28.50;77.50;;;;;;6280887;22;20098;-83
2023/09/10 10:28:37;;;;;;;5.20;4.53;;;28.70;76.90;;;;;;6255253;22;20094;-87
2023/09/10 10:32:27;;;;;;;6.30;5.22;;;29.00;76.30;;;;;;6280605;22;20099;-86
2023/09/10 10:34:59;;;;;;;6.57;5.22;;;29.10;75.40;;;;;;6281453;22;20099;-86
2023/09/10 10:37:56;;;;;;;5.88;4.85;;;29.00;75.80;;;;;;6281711;22;20015;-87
2023/09/10 10:40:30;;;;;;;5.38;4.40;;;29.10;75.50;;;;;;6281630;22;20019;-88
2023/09/10 10:43:12;;;;;;;5.47;4.68;;;29.30;74.90;;;;;;6255984;22;20345;-87
2023/09/10 10:45:43;;;;;;;5.43;4.25;;;28.90;75.10;;;;;;6255525;22;20019;-84
2023/09/10 10:48:23;;;;;;;6.47;4.33;;;28.80;75.60;;;;;;6280769;22;20020;-86
2023/09/10 10:51:09;;;;;;;5.43;3.90;;;28.80;75.40;;;;;;6280934;22;20019;-85
2023/09/10 10:53:39;;;;;;;5.68;4.72;;;28.60;75.80;;;;;;6287352;22;20019;-85
2023/09/10 10:56:14;;;;;;;8.65;6.40;;;28.30;76.30;;;;;;6261154;22;20019;-86
2023/09/10 10:58:42;;;;;;;7.53;5.95;;;28.20;76.20;;;;;;6285849;22;20023;-85
2023/09/10 11:01:13;;;;;;;7.38;4.95;;;28.10;76.60;;;;;;6291457;22;20042;-85
2023/09/10 11:04:25;;;;;;;5.47;4.50;;;28.10;76.70;;;;;;6334744;22;20033;-88
2023/09/10 11:07:29;;;;;;;8.38;6.47;;;28.00;76.70;;;;;;6283197;22;20034;-88
2023/09/10 11:10:24;;;;;;;7.57;5.95;;;28.00;76.60;;;;;;6284041;22;20015;-85
2023/09/10 11:13:11;;;;;;;7.15;5.80;;;28.00;76.70;;;;;;6306930;22;20015;-84
2023/09/10 11:16:04;;;;;;;7.72;5.38;;;28.00;76.70;;;;;;6306470;22;20019;-85
2023/09/10 11:18:35;;;;;;;7.10;5.35;;;28.00;76.60;;;;;;6281312;22;20346;-84
2023/09/10 11:21:04;;;;;;;8.82;6.35;;;28.00;76.60;;;;;;6280844;22;20030;-83
2023/09/10 11:23:32;;;;;;;6.78;5.80;;;28.00;76.30;;;;;;6306132;22;20015;-84
2023/09/10 11:26:15;;;;;;;6.45;5.00;;;28.10;76.20;;;;;;6305850;22;20022;-87
2023/09/10 11:28:49;;;;;;;5.90;4.75;;;28.20;76.20;;;;;;6306439;22;20015;-88
2023/09/10 11:34:31;;;;;;;5.28;4.43;;;28.10;76.00;;;;;;6332883;22;20023;-85
2023/09/10 11:37:08;;;;;;;5.38;4.30;;;28.20;76.00;;;;;;6296483;22;20024;-86
2023/09/10 11:39:36;;;;;;;5.78;4.10;;;28.20;76.00;;;;;;6305847;22;20054;-85
2023/09/10 11:42:07;;;;;;;5.95;4.00;;;28.20;76.00;;;;;;6307773;22;20018;-85
2023/09/10 11:44:49;;;;;;;4.63;3.83;;;28.20;75.80;;;;;;6306285;22;20025;-86
2023/09/10 11:47:29;;;;;;;4.97;3.95;;;28.30;75.60;;;;;;6280797;22;20043;-87
2023/09/10 11:50:04;;;;;;;6.68;5.20;;;28.30;75.40;;;;;;6305317;22;20012;-88
2023/09/10 11:52:33;;;;;;;8.23;5.13;;;28.40;74.50;;;;;;6306029;22;20072;-85
2023/09/10 11:55:05;;;;;;;7.40;5.13;;;28.40;74.60;;;;;;6332380;22;20015;-85
2023/09/10 11:57:43;;;;;;;7.18;5.18;;;28.40;74.60;;;;;;6306993;22;20020;-86
2023/09/10 12:00:27;;;;;;;7.97;5.30;;;28.50;74.50;;;;;;6303002;22;20085;-85
2023/09/10 12:03:00;;;;;;;6.03;4.85;;;28.50;73.80;;;;;;6308299;22;20090;-84
2023/09/10 12:06:07;;;;;;;5.20;4.32;;;28.50;73.90;;;;;;6287104;22;20017;-89
2023/09/10 12:08:42;;;;;;;5.00;4.22;;;28.50;73.90;;;;;;6314114;22;20019;-85
2023/09/10 12:11:18;;;;;;;5.30;3.40;;;28.60;73.70;;;;;;6333577;22;20069;-87
2023/09/10 12:13:48;;;;;;;4.95;3.92;;;28.60;73.70;;;;;;6334440;22;20121;-85
2023/09/10 12:16:17;;;;;;;5.07;3.05;;;28.60;73.70;;;;;;6308114;22;20019;-89
2023/09/10 12:18:48;;;;;;;5.05;3.20;;;28.70;73.60;;;;;;6309176;22;20345;-89
2023/09/10 12:21:18;;;;;;;5.15;3.45;;;28.70;73.40;;;;;;6308260;22;20437;-87
2023/09/10 12:24:15;;;;;;;4.75;3.30;;;28.80;73.30;;;;;;6283186;22;20076;-89
2023/09/10 12:31:24;;;;;;;4.57;2.65;;;28.90;72.90;;;;;;6309957;22;20067;-89
2023/09/10 12:33:52;;;;;;;4.35;2.83;;;28.80;73.20;;;;;;6307805;22;20015;-86
2023/09/10 12:36:20;;;;;;;3.97;2.90;;;28.90;73.10;;;;;;6307643;22;20098;-86
2023/09/10 12:38:48;;;;;;;3.33;2.55;;;28.90;73.00;;;;;;6307498;22;20023;-84
2023/09/10 12:41:16;;;;;;;3.47;2.17;;;28.90;72.90;;;;;;6307739;22;20071;-85
2023/09/10 12:44:29;;;;;;;5.03;2.55;;;28.90;72.80;;;;;;6282136;22;20019;-88
2023/09/10 12:46:57;;;;;;;3.70;2.78;;;29.00;72.50;;;;;;6307705;22;20429;-82
2023/09/10 12:49:26;;;;;;;3.63;2.33;;;29.00;72.60;;;;;;6333448;22;20047;-86
2023/09/10 12:51:55;;;;;;;2.33;1.90;;;29.00;72.40;;;;;;6282031;22;20023;-82
2023/09/10 12:54:22;;;;;;;4.75;2.70;;;29.10;72.40;;;;;;6281614;22;20121;-85
2023/09/10 12:56:51;;;;;;;5.45;2.80;;;29.10;72.20;;;;;;6282005;22;20047;-83
2023/09/10 12:59:25;;;;;;;4.80;2.80;;;29.20;72.00;;;;;;6281664;22;20030;-86
2023/09/10 13:01:52;;;;;;;2.72;1.92;;;29.20;71.80;;;;;;6281597;22;20045;-84
2023/09/10 13:04:19;;;;;;;3.13;2.00;;;29.20;71.80;;;;;;6307141;22;20019;-85
2023/09/10 13:06:47;;;;;;;3.92;2.40;;;29.20;71.80;;;;;;6281330;22;20019;-84
2023/09/10 13:09:17;;;;;;;2.90;1.80;;;29.20;71.80;;;;;;6281896;22;20026;-87